sensor_id;sensor_type;location;lat;lon;timestamp;temperature;humidity
20432;DHT22;10375;49.136;10.366;2022-08-03T00:01:30;16.80;99.00
20432;DHT22;10375;49.136;10.366;2022-08-03T00:03:57;16.80;98.80
20432;DHT22;10375;49.136;10.366;2022-08-03T00:06:24;16.70;99.30
20432;DHT22;10375;49.136;10.366;2022-08-03T00:08:51;16.70;99.90
20432;DHT22;10375;49.136;10.366;2022-08-03T00:11:18;16.70;99.90
20432;DHT22;10375;49.136;10.366;2022-08-03T00:13:46;16.60;99.90
20432;DHT22;10375;49.136;10.366;2022-08-03T00:16:13;16.60;99.90
20432;DHT22;10375;49.136;10.366;2022-08-03T00:18:40;16.60;99.90
20432;DHT22;10375;49.136;10.366;2022-08-03T00:21:07;16.60;99.90
20432;DHT22;10375;49.136;10.366;2022-08-03T00:23:35;16.60;99.90
20432;DHT22;10375;49.136;10.366;2022-08-03T00:26:19;16.60;99.90
20432;DHT22;10375;49.136;10.366;2022-08-03T00:28:46;16.60;99.90
20432;DHT22;10375;49.136;10.366;2022-08-03T00:31:14;16.60;99.90
20432;DHT22;10375;49.136;10.366;2022-08-03T00:33:41;16.50;99.90
20432;DHT22;10375;49.136;10.366;2022-08-03T00:36:28;16.50;99.90
20432;DHT22;10375;49.136;10.366;2022-08-03T00:38:55;16.50;99.90
20432;DHT22;10375;49.136;10.366;2022-08-03T00:41:22;16.40;99.90
20432;DHT22;10375;49.136;10.366;2022-08-03T00:43:50;16.40;99.90
20432;DHT22;10375;49.136;10.366;2022-08-03T00:46:17;16.40;99.90
20432;DHT22;10375;49.136;10.366;2022-08-03T00:48:51;16.40;99.90
20432;DHT22;10375;49.136;10.366;2022-08-03T00:51:22;16.40;99.90
20432;DHT22;10375;49.136;10.366;2022-08-03T00:53:50;16.40;99.90
20432;DHT22;10375;49.136;10.366;2022-08-03T00:56:17;16.40;99.90
20432;DHT22;10375;49.136;10.366;2022-08-03T00:58:45;16.30;99.90
20432;DHT22;10375;49.136;10.366;2022-08-03T01:01:13;16.30;99.90
20432;DHT22;10375;49.136;10.366;2022-08-03T01:03:41;16.30;99.90
20432;DHT22;10375;49.136;10.366;2022-08-03T01:06:57;16.20;99.90
20432;DHT22;10375;49.136;10.366;2022-08-03T01:09:36;16.10;99.90
20432;DHT22;10375;49.136;10.366;2022-08-03T01:12:17;16.10;99.90
20432;DHT22;10375;49.136;10.366;2022-08-03T01:15:34;16.10;99.90
20432;DHT22;10375;49.136;10.366;2022-08-03T01:17:54;16.00;99.90
20432;DHT22;10375;49.136;10.366;2022-08-03T01:20:24;16.00;99.90
20432;DHT22;10375;49.136;10.366;2022-08-03T01:23:05;15.90;99.90
20432;DHT22;10375;49.136;10.366;2022-08-03T01:31:22;15.80;99.90
20432;DHT22;10375;49.136;10.366;2022-08-03T01:33:59;15.70;99.90
20432;DHT22;10375;49.136;10.366;2022-08-03T01:36:33;15.70;99.90
20432;DHT22;10375;49.136;10.366;2022-08-03T01:39:04;15.70;99.90
20432;DHT22;10375;49.136;10.366;2022-08-03T01:41:39;15.60;99.90
20432;DHT22;10375;49.136;10.366;2022-08-03T01:44:09;15.60;99.90
20432;DHT22;10375;49.136;10.366;2022-08-03T01:47:00;15.50;99.90
20432;DHT22;10375;49.136;10.366;2022-08-03T01:49:30;15.50;99.90
20432;DHT22;10375;49.136;10.366;2022-08-03T01:51:59;15.60;99.90
20432;DHT22;10375;49.136;10.366;2022-08-03T01:54:35;15.60;99.90
20432;DHT22;10375;49.136;10.366;2022-08-03T01:57:03;15.60;99.90
20432;DHT22;10375;49.136;10.366;2022-08-03T01:59:33;15.60;99.90
20432;DHT22;10375;49.136;10.366;2022-08-03T02:02:02;15.60;99.90
20432;DHT22;10375;49.136;10.366;2022-08-03T02:04:51;15.50;99.90
20432;DHT22;10375;49.136;10.366;2022-08-03T02:07:19;15.50;99.90
20432;DHT22;10375;49.136;10.366;2022-08-03T02:09:50;15.50;99.90
20432;DHT22;10375;49.136;10.366;2022-08-03T02:12:17;15.50;99.90
20432;DHT22;10375;49.136;10.366;2022-08-03T02:14:46;15.50;99.90
20432;DHT22;10375;49.136;10.366;2022-08-03T02:17:15;15.50;99.90
20432;DHT22;10375;49.136;10.366;2022-08-03T02:19:43;15.50;99.90
20432;DHT22;10375;49.136;10.366;2022-08-03T02:22:11;15.40;99.90
20432;DHT22;10375;49.136;10.366;2022-08-03T02:24:40;15.40;99.90
20432;DHT22;10375;49.136;10.366;2022-08-03T02:27:22;15.30;99.90
20432;DHT22;10375;49.136;10.366;2022-08-03T02:30:00;15.20;99.90
20432;DHT22;10375;49.136;10.366;2022-08-03T02:32:39;15.20;99.90
20432;DHT22;10375;49.136;10.366;2022-08-03T02:35:10;15.20;99.90
20432;DHT22;10375;49.136;10.366;2022-08-03T02:37:45;15.20;99.90
20432;DHT22;10375;49.136;10.366;2022-08-03T02:40:17;15.20;99.90
20432;DHT22;10375;49.136;10.366;2022-08-03T02:42:46;15.20;99.90
20432;DHT22;10375;49.136;10.366;2022-08-03T02:45:16;15.20;99.90
20432;DHT22;10375;49.136;10.366;2022-08-03T02:47:45;15.30;99.90
20432;DHT22;10375;49.136;10.366;2022-08-03T02:50:21;15.30;99.90
20432;DHT22;10375;49.136;10.366;2022-08-03T02:52:50;15.30;99.90
20432;DHT22;10375;49.136;10.366;2022-08-03T02:55:20;15.20;99.90
20432;DHT22;10375;49.136;10.366;2022-08-03T02:57:49;15.20;99.90
20432;DHT22;10375;49.136;10.366;2022-08-03T03:00:17;15.10;99.90
20432;DHT22;10375;49.136;10.366;2022-08-03T03:02:57;15.10;99.90
20432;DHT22;10375;49.136;10.366;2022-08-03T03:05:27;15.10;99.90
20432;DHT22;10375;49.136;10.366;2022-08-03T03:08:17;15.00;99.90
20432;DHT22;10375;49.136;10.366;2022-08-03T03:10:54;15.00;99.90
20432;DHT22;10375;49.136;10.366;2022-08-03T03:13:22;15.00;99.90
20432;DHT22;10375;49.136;10.366;2022-08-03T03:15:51;15.00;99.90
20432;DHT22;10375;49.136;10.366;2022-08-03T03:18:20;15.00;99.90
20432;DHT22;10375;49.136;10.366;2022-08-03T03:20:50;15.00;99.90
20432;DHT22;10375;49.136;10.366;2022-08-03T03:23:20;15.00;99.90
20432;DHT22;10375;49.136;10.366;2022-08-03T03:25:48;15.00;99.90
20432;DHT22;10375;49.136;10.366;2022-08-03T03:28:16;15.00;99.90
20432;DHT22;10375;49.136;10.366;2022-08-03T03:30:44;15.00;99.90
20432;DHT22;10375;49.136;10.366;2022-08-03T03:33:19;15.00;99.90
20432;DHT22;10375;49.136;10.366;2022-08-03T03:35:48;15.00;99.90
20432;DHT22;10375;49.136;10.366;2022-08-03T03:38:15;15.00;99.90
20432;DHT22;10375;49.136;10.366;2022-08-03T03:40:42;14.90;99.90
20432;DHT22;10375;49.136;10.366;2022-08-03T03:43:11;14.90;99.90
20432;DHT22;10375;49.136;10.366;2022-08-03T03:45:42;14.90;99.90
20432;DHT22;10375;49.136;10.366;2022-08-03T03:48:10;14.90;99.90
20432;DHT22;10375;49.136;10.366;2022-08-03T03:50:37;14.90;99.90
20432;DHT22;10375;49.136;10.366;2022-08-03T03:53:11;14.90;99.90
20432;DHT22;10375;49.136;10.366;2022-08-03T03:55:39;14.80;99.90
20432;DHT22;10375;49.136;10.366;2022-08-03T03:58:26;14.80;99.90
20432;DHT22;10375;49.136;10.366;2022-08-03T04:00:54;14.90;99.90
20432;DHT22;10375;49.136;10.366;2022-08-03T04:03:21;14.90;99.90
20432;DHT22;10375;49.136;10.366;2022-08-03T04:05:48;14.80;99.90
20432;DHT22;10375;49.136;10.366;2022-08-03T04:08:34;14.80;99.90
20432;DHT22;10375;49.136;10.366;2022-08-03T04:12:07;14.70;99.90
20432;DHT22;10375;49.136;10.366;2022-08-03T04:14:24;14.80;99.90
20432;DHT22;10375;49.136;10.366;2022-08-03T04:17:01;14.80;99.90
20432;DHT22;10375;49.136;10.366;2022-08-03T04:19:36;14.90;99.90
20432;DHT22;10375;49.136;10.366;2022-08-03T04:22:16;14.90;99.90
20432;DHT22;10375;49.136;10.366;2022-08-03T04:24:49;15.00;99.90
20432;DHT22;10375;49.136;10.366;2022-08-03T04:27:22;15.00;99.90
20432;DHT22;10375;49.136;10.366;2022-08-03T04:29:53;15.00;99.90
20432;DHT22;10375;49.136;10.366;2022-08-03T04:32:23;15.00;99.90
20432;DHT22;10375;49.136;10.366;2022-08-03T04:34:52;15.10;99.90
20432;DHT22;10375;49.136;10.366;2022-08-03T04:37:41;15.10;99.90
20432;DHT22;10375;49.136;10.366;2022-08-03T04:40:13;15.20;99.90
20432;DHT22;10375;49.136;10.366;2022-08-03T04:42:47;15.20;99.90
20432;DHT22;10375;49.136;10.366;2022-08-03T04:45:16;15.30;99.90
20432;DHT22;10375;49.136;10.366;2022-08-03T04:47:44;15.40;99.90
20432;DHT22;10375;49.136;10.366;2022-08-03T04:50:13;15.50;99.90
20432;DHT22;10375;49.136;10.366;2022-08-03T04:52:47;15.70;99.90
20432;DHT22;10375;49.136;10.366;2022-08-03T04:55:32;15.70;99.90
20432;DHT22;10375;49.136;10.366;2022-08-03T04:58:01;15.90;99.90
20432;DHT22;10375;49.136;10.366;2022-08-03T05:00:29;15.90;99.90
20432;DHT22;10375;49.136;10.366;2022-08-03T05:02:56;15.90;99.90
20432;DHT22;10375;49.136;10.366;2022-08-03T05:05:23;16.00;99.90
20432;DHT22;10375;49.136;10.366;2022-08-03T05:07:50;16.10;99.90
20432;DHT22;10375;49.136;10.366;2022-08-03T05:10:18;16.30;99.90
20432;DHT22;10375;49.136;10.366;2022-08-03T05:12:47;16.50;99.90
20432;DHT22;10375;49.136;10.366;2022-08-03T05:15:14;16.50;99.90
20432;DHT22;10375;49.136;10.366;2022-08-03T05:17:42;16.60;99.90
20432;DHT22;10375;49.136;10.366;2022-08-03T05:20:10;16.60;99.90
20432;DHT22;10375;49.136;10.366;2022-08-03T05:22:37;16.70;99.90
20432;DHT22;10375;49.136;10.366;2022-08-03T05:25:04;16.80;99.90
20432;DHT22;10375;49.136;10.366;2022-08-03T05:27:31;16.90;99.90
20432;DHT22;10375;49.136;10.366;2022-08-03T05:29:58;17.10;99.90
20432;DHT22;10375;49.136;10.366;2022-08-03T05:32:45;17.40;99.90
20432;DHT22;10375;49.136;10.366;2022-08-03T05:35:12;19.70;99.90
20432;DHT22;10375;49.136;10.366;2022-08-03T05:38:02;23.20;99.90
20432;DHT22;10375;49.136;10.366;2022-08-03T05:40:29;26.80;95.20
20432;DHT22;10375;49.136;10.366;2022-08-03T05:42:57;29.50;85.00
20432;DHT22;10375;49.136;10.366;2022-08-03T05:45:24;31.50;72.60
20432;DHT22;10375;49.136;10.366;2022-08-03T05:47:54;32.90;65.00
20432;DHT22;10375;49.136;10.366;2022-08-03T05:50:21;33.90;59.90
20432;DHT22;10375;49.136;10.366;2022-08-03T05:52:48;34.90;57.50
20432;DHT22;10375;49.136;10.366;2022-08-03T05:55:16;35.80;54.80
20432;DHT22;10375;49.136;10.366;2022-08-03T05:57:45;36.50;53.20
20432;DHT22;10375;49.136;10.366;2022-08-03T06:00:15;37.10;51.30
20432;DHT22;10375;49.136;10.366;2022-08-03T06:02:42;37.40;50.40
20432;DHT22;10375;49.136;10.366;2022-08-03T06:05:09;37.90;49.40
20432;DHT22;10375;49.136;10.366;2022-08-03T06:07:36;38.10;48.90
20432;DHT22;10375;49.136;10.366;2022-08-03T06:10:04;38.40;48.10
20432;DHT22;10375;49.136;10.366;2022-08-03T06:12:51;38.60;48.00
20432;DHT22;10375;49.136;10.366;2022-08-03T06:15:19;38.90;47.30
20432;DHT22;10375;49.136;10.366;2022-08-03T06:17:50;38.80;46.80
20432;DHT22;10375;49.136;10.366;2022-08-03T06:20:18;38.70;46.70
20432;DHT22;10375;49.136;10.366;2022-08-03T06:22:47;38.50;47.00
20432;DHT22;10375;49.136;10.366;2022-08-03T06:25:17;38.10;47.40
20432;DHT22;10375;49.136;10.366;2022-08-03T06:27:47;37.70;48.20
20432;DHT22;10375;49.136;10.366;2022-08-03T06:30:14;37.80;47.40
20432;DHT22;10375;49.136;10.366;2022-08-03T06:32:47;37.30;48.20
20432;DHT22;10375;49.136;10.366;2022-08-03T06:35:18;37.50;48.40
20432;DHT22;10375;49.136;10.366;2022-08-03T06:37:47;38.20;47.50
20432;DHT22;10375;49.136;10.366;2022-08-03T06:40:20;38.70;46.90
20432;DHT22;10375;49.136;10.366;2022-08-03T06:42:58;39.00;45.90
20432;DHT22;10375;49.136;10.366;2022-08-03T06:45:26;39.10;46.40
20432;DHT22;10375;49.136;10.366;2022-08-03T06:48:01;39.70;45.90
20432;DHT22;10375;49.136;10.366;2022-08-03T06:50:28;39.90;46.10
20432;DHT22;10375;49.136;10.366;2022-08-03T06:52:56;40.10;45.70
20432;DHT22;10375;49.136;10.366;2022-08-03T06:55:23;40.40;45.70
20432;DHT22;10375;49.136;10.366;2022-08-03T06:57:50;40.30;45.50
20432;DHT22;10375;49.136;10.366;2022-08-03T07:00:18;40.50;45.60
20432;DHT22;10375;49.136;10.366;2022-08-03T07:02:45;40.50;45.30
20432;DHT22;10375;49.136;10.366;2022-08-03T07:05:13;40.60;45.70
20432;DHT22;10375;49.136;10.366;2022-08-03T07:07:40;40.40;45.00
20432;DHT22;10375;49.136;10.366;2022-08-03T07:10:08;40.30;44.60
20432;DHT22;10375;49.136;10.366;2022-08-03T07:12:38;39.70;45.10
20432;DHT22;10375;49.136;10.366;2022-08-03T07:15:22;40.00;44.90
20432;DHT22;10375;49.136;10.366;2022-08-03T07:18:09;39.40;45.00
20432;DHT22;10375;49.136;10.366;2022-08-03T07:20:36;38.60;45.00
20432;DHT22;10375;49.136;10.366;2022-08-03T07:23:03;39.00;45.50
20432;DHT22;10375;49.136;10.366;2022-08-03T07:25:30;39.00;44.80
20432;DHT22;10375;49.136;10.366;2022-08-03T07:27:57;38.30;45.10
20432;DHT22;10375;49.136;10.366;2022-08-03T07:30:24;37.90;45.60
20432;DHT22;10375;49.136;10.366;2022-08-03T07:32:51;38.20;45.60
20432;DHT22;10375;49.136;10.366;2022-08-03T07:35:18;37.80;45.70
20432;DHT22;10375;49.136;10.366;2022-08-03T07:37:52;37.20;45.90
20432;DHT22;10375;49.136;10.366;2022-08-03T07:40:20;37.60;47.10
20432;DHT22;10375;49.136;10.366;2022-08-03T07:42:47;37.30;45.70
20432;DHT22;10375;49.136;10.366;2022-08-03T07:45:19;36.70;47.90
20432;DHT22;10375;49.136;10.366;2022-08-03T07:47:49;36.90;46.80
20432;DHT22;10375;49.136;10.366;2022-08-03T07:50:20;36.60;47.10
20432;DHT22;10375;49.136;10.366;2022-08-03T07:52:48;35.70;47.60
20432;DHT22;10375;49.136;10.366;2022-08-03T07:55:17;35.00;48.20
20432;DHT22;10375;49.136;10.366;2022-08-03T07:57:44;35.00;49.10
20432;DHT22;10375;49.136;10.366;2022-08-03T08:00:17;35.10;48.90
20432;DHT22;10375;49.136;10.366;2022-08-03T08:02:44;34.90;49.50
20432;DHT22;10375;49.136;10.366;2022-08-03T08:05:12;34.50;50.10
20432;DHT22;10375;49.136;10.366;2022-08-03T08:07:39;33.90;50.00
20432;DHT22;10375;49.136;10.366;2022-08-03T08:10:08;33.50;50.70
20432;DHT22;10375;49.136;10.366;2022-08-03T08:12:37;33.20;51.50
20432;DHT22;10375;49.136;10.366;2022-08-03T08:15:05;33.00;51.60
20432;DHT22;10375;49.136;10.366;2022-08-03T08:17:51;32.60;52.20
20432;DHT22;10375;49.136;10.366;2022-08-03T08:20:22;32.50;52.70
20432;DHT22;10375;49.136;10.366;2022-08-03T08:22:59;32.40;52.70
20432;DHT22;10375;49.136;10.366;2022-08-03T08:25:29;32.80;51.60
20432;DHT22;10375;49.136;10.366;2022-08-03T08:27:57;32.40;51.80
20432;DHT22;10375;49.136;10.366;2022-08-03T08:30:48;32.20;51.70
20432;DHT22;10375;49.136;10.366;2022-08-03T08:33:15;31.90;52.80
20432;DHT22;10375;49.136;10.366;2022-08-03T08:35:50;32.00;52.70
20432;DHT22;10375;49.136;10.366;2022-08-03T08:38:18;31.90;51.80
20432;DHT22;10375;49.136;10.366;2022-08-03T08:40:47;32.20;52.90
20432;DHT22;10375;49.136;10.366;2022-08-03T08:43:14;32.30;51.20
20432;DHT22;10375;49.136;10.366;2022-08-03T08:45:41;32.10;51.10
20432;DHT22;10375;49.136;10.366;2022-08-03T08:48:09;32.20;51.00
20432;DHT22;10375;49.136;10.366;2022-08-03T08:50:38;32.30;50.50
20432;DHT22;10375;49.136;10.366;2022-08-03T08:53:06;32.30;50.30
20432;DHT22;10375;49.136;10.366;2022-08-03T08:55:36;32.50;49.50
20432;DHT22;10375;49.136;10.366;2022-08-03T08:58:27;32.10;49.70
20432;DHT22;10375;49.136;10.366;2022-08-03T09:00:54;32.50;50.20
20432;DHT22;10375;49.136;10.366;2022-08-03T09:03:22;32.80;49.60
20432;DHT22;10375;49.136;10.366;2022-08-03T09:05:58;33.00;48.40
20432;DHT22;10375;49.136;10.366;2022-08-03T09:08:25;33.40;47.40
20432;DHT22;10375;49.136;10.366;2022-08-03T09:11:04;33.80;47.30
20432;DHT22;10375;49.136;10.366;2022-08-03T09:13:34;34.40;46.50
20432;DHT22;10375;49.136;10.366;2022-08-03T09:16:18;34.50;45.10
20432;DHT22;10375;49.136;10.366;2022-08-03T09:18:51;34.30;45.40
20432;DHT22;10375;49.136;10.366;2022-08-03T09:21:25;34.20;45.50
20432;DHT22;10375;49.136;10.366;2022-08-03T09:23:59;34.40;45.90
20432;DHT22;10375;49.136;10.366;2022-08-03T09:26:30;34.40;45.10
20432;DHT22;10375;49.136;10.366;2022-08-03T09:29:05;34.10;46.10
20432;DHT22;10375;49.136;10.366;2022-08-03T09:31:42;33.80;46.20
20432;DHT22;10375;49.136;10.366;2022-08-03T09:34:13;33.50;46.60
20432;DHT22;10375;49.136;10.366;2022-08-03T09:36:41;33.40;46.80
20432;DHT22;10375;49.136;10.366;2022-08-03T09:39:14;33.50;47.30
20432;DHT22;10375;49.136;10.366;2022-08-03T09:41:47;33.80;46.70
20432;DHT22;10375;49.136;10.366;2022-08-03T09:44:15;33.80;46.80
20432;DHT22;10375;49.136;10.366;2022-08-03T09:46:53;34.10;46.80
20432;DHT22;10375;49.136;10.366;2022-08-03T09:49:22;34.30;45.70
20432;DHT22;10375;49.136;10.366;2022-08-03T09:51:50;34.10;46.40
20432;DHT22;10375;49.136;10.366;2022-08-03T09:54:37;34.20;47.00
20432;DHT22;10375;49.136;10.366;2022-08-03T09:57:04;34.30;45.50
20432;DHT22;10375;49.136;10.366;2022-08-03T09:59:32;34.40;45.10
20432;DHT22;10375;49.136;10.366;2022-08-03T10:02:01;34.00;45.90
20432;DHT22;10375;49.136;10.366;2022-08-03T10:04:28;34.00;44.90
20432;DHT22;10375;49.136;10.366;2022-08-03T10:07:09;33.70;45.90
20432;DHT22;10375;49.136;10.366;2022-08-03T10:09:36;32.90;46.80
20432;DHT22;10375;49.136;10.366;2022-08-03T10:12:11;33.20;47.40
20432;DHT22;10375;49.136;10.366;2022-08-03T10:14:40;33.10;46.10
20432;DHT22;10375;49.136;10.366;2022-08-03T10:17:11;33.60;45.90
20432;DHT22;10375;49.136;10.366;2022-08-03T10:19:38;33.70;44.80
20432;DHT22;10375;49.136;10.366;2022-08-03T10:25:05;33.60;44.00
20432;DHT22;10375;49.136;10.366;2022-08-03T10:27:40;33.90;44.50
20432;DHT22;10375;49.136;10.366;2022-08-03T10:30:09;34.20;42.80
20432;DHT22;10375;49.136;10.366;2022-08-03T10:32:47;34.50;44.00
20432;DHT22;10375;49.136;10.366;2022-08-03T10:35:16;35.00;43.80
20432;DHT22;10375;49.136;10.366;2022-08-03T10:37:55;35.00;42.30
20432;DHT22;10375;49.136;10.366;2022-08-03T10:40:27;35.30;43.60
20432;DHT22;10375;49.136;10.366;2022-08-03T10:43:26;35.50;42.30
20432;DHT22;10375;49.136;10.366;2022-08-03T10:45:55;34.60;42.70
20432;DHT22;10375;49.136;10.366;2022-08-03T10:48:22;34.90;43.00
20432;DHT22;10375;49.136;10.366;2022-08-03T10:50:50;35.60;43.20
20432;DHT22;10375;49.136;10.366;2022-08-03T10:53:34;36.10;42.30
20432;DHT22;10375;49.136;10.366;2022-08-03T10:56:02;36.40;37.80
20432;DHT22;10375;49.136;10.366;2022-08-03T10:59:08;35.80;37.90
20432;DHT22;10375;49.136;10.366;2022-08-03T11:01:49;35.40;40.40
20432;DHT22;10375;49.136;10.366;2022-08-03T11:04:27;35.50;39.10
20432;DHT22;10375;49.136;10.366;2022-08-03T11:07:18;35.80;39.40
20432;DHT22;10375;49.136;10.366;2022-08-03T11:09:53;36.00;38.70
20432;DHT22;10375;49.136;10.366;2022-08-03T11:15:05;35.00;39.20
20432;DHT22;10375;49.136;10.366;2022-08-03T11:17:34;35.00;39.00
20432;DHT22;10375;49.136;10.366;2022-08-03T11:20:53;35.00;39.00
20432;DHT22;10375;49.136;10.366;2022-08-03T11:23:40;35.00;39.50
20432;DHT22;10375;49.136;10.366;2022-08-03T11:26:27;34.80;40.80
20432;DHT22;10375;49.136;10.366;2022-08-03T11:29:27;34.70;41.90
20432;DHT22;10375;49.136;10.366;2022-08-03T11:31:55;35.00;41.50
20432;DHT22;10375;49.136;10.366;2022-08-03T11:34:22;35.40;40.30
20432;DHT22;10375;49.136;10.366;2022-08-03T11:37:19;35.90;40.00
20432;DHT22;10375;49.136;10.366;2022-08-03T11:39:57;35.90;39.40
20432;DHT22;10375;49.136;10.366;2022-08-03T11:44:59;35.50;40.60
20432;DHT22;10375;49.136;10.366;2022-08-03T11:47:28;35.80;39.20
20432;DHT22;10375;49.136;10.366;2022-08-03T11:49:57;35.40;39.00
20432;DHT22;10375;49.136;10.366;2022-08-03T11:52:27;35.60;38.70
20432;DHT22;10375;49.136;10.366;2022-08-03T11:55:00;35.70;39.70
20432;DHT22;10375;49.136;10.366;2022-08-03T11:57:32;35.00;39.60
20432;DHT22;10375;49.136;10.366;2022-08-03T12:00:30;34.30;40.40
20432;DHT22;10375;49.136;10.366;2022-08-03T12:03:02;34.40;39.60
20432;DHT22;10375;49.136;10.366;2022-08-03T12:05:46;34.80;39.60
20432;DHT22;10375;49.136;10.366;2022-08-03T12:10:55;35.20;38.50
20432;DHT22;10375;49.136;10.366;2022-08-03T12:13:23;35.20;39.20
20432;DHT22;10375;49.136;10.366;2022-08-03T12:16:19;35.10;38.90
20432;DHT22;10375;49.136;10.366;2022-08-03T12:19:14;35.00;38.70
20432;DHT22;10375;49.136;10.366;2022-08-03T12:21:48;35.10;39.20
20432;DHT22;10375;49.136;10.366;2022-08-03T12:24:23;35.20;38.40
20432;DHT22;10375;49.136;10.366;2022-08-03T12:26:50;35.00;39.70
20432;DHT22;10375;49.136;10.366;2022-08-03T12:29:25;35.20;39.70
20432;DHT22;10375;49.136;10.366;2022-08-03T12:31:53;35.10;39.20
20432;DHT22;10375;49.136;10.366;2022-08-03T12:34:22;35.60;39.10
20432;DHT22;10375;49.136;10.366;2022-08-03T12:36:53;35.80;39.80
20432;DHT22;10375;49.136;10.366;2022-08-03T12:39:23;35.50;40.60
20432;DHT22;10375;49.136;10.366;2022-08-03T12:41:53;35.30;40.80
20432;DHT22;10375;49.136;10.366;2022-08-03T12:44:35;35.00;41.00
20432;DHT22;10375;49.136;10.366;2022-08-03T12:47:03;34.70;41.10
20432;DHT22;10375;49.136;10.366;2022-08-03T12:49:49;34.70;42.20
20432;DHT22;10375;49.136;10.366;2022-08-03T12:52:18;35.50;40.30
20432;DHT22;10375;49.136;10.366;2022-08-03T12:54:59;36.00;40.70
20432;DHT22;10375;49.136;10.366;2022-08-03T12:57:40;36.50;39.80
20432;DHT22;10375;49.136;10.366;2022-08-03T13:00:17;36.40;39.70
20432;DHT22;10375;49.136;10.366;2022-08-03T13:03:02;36.40;39.80
20432;DHT22;10375;49.136;10.366;2022-08-03T13:05:49;36.40;38.70
20432;DHT22;10375;49.136;10.366;2022-08-03T13:08:22;35.80;39.70
20432;DHT22;10375;49.136;10.366;2022-08-03T13:10:50;35.50;40.30
20432;DHT22;10375;49.136;10.366;2022-08-03T13:13:17;35.20;41.20
20432;DHT22;10375;49.136;10.366;2022-08-03T13:15:46;35.10;40.20
20432;DHT22;10375;49.136;10.366;2022-08-03T13:18:14;35.00;40.60
20432;DHT22;10375;49.136;10.366;2022-08-03T13:20:43;35.00;40.50
20432;DHT22;10375;49.136;10.366;2022-08-03T13:23:10;35.00;40.80
20432;DHT22;10375;49.136;10.366;2022-08-03T13:25:48;35.20;40.60
20432;DHT22;10375;49.136;10.366;2022-08-03T13:28:21;35.50;40.90
20432;DHT22;10375;49.136;10.366;2022-08-03T13:30:48;35.70;40.60
20432;DHT22;10375;49.136;10.366;2022-08-03T13:33:16;35.70;40.60
20432;DHT22;10375;49.136;10.366;2022-08-03T13:35:43;36.10;40.00
20432;DHT22;10375;49.136;10.366;2022-08-03T13:38:10;36.30;40.20
20432;DHT22;10375;49.136;10.366;2022-08-03T13:40:37;36.60;40.00
20432;DHT22;10375;49.136;10.366;2022-08-03T13:43:07;36.30;39.00
20432;DHT22;10375;49.136;10.366;2022-08-03T13:45:34;36.20;39.80
20432;DHT22;10375;49.136;10.366;2022-08-03T13:48:01;35.90;39.90
20432;DHT22;10375;49.136;10.366;2022-08-03T13:50:31;35.50;40.00
20432;DHT22;10375;49.136;10.366;2022-08-03T13:52:58;35.30;39.90
20432;DHT22;10375;49.136;10.366;2022-08-03T13:55:25;35.10;40.50
20432;DHT22;10375;49.136;10.366;2022-08-03T13:57:52;35.40;40.30
20432;DHT22;10375;49.136;10.366;2022-08-03T14:00:39;35.80;40.60
20432;DHT22;10375;49.136;10.366;2022-08-03T14:03:07;36.10;39.20
20432;DHT22;10375;49.136;10.366;2022-08-03T14:05:41;35.90;38.30
20432;DHT22;10375;49.136;10.366;2022-08-03T14:08:08;35.80;39.50
20432;DHT22;10375;49.136;10.366;2022-08-03T14:10:38;35.90;38.90
20432;DHT22;10375;49.136;10.366;2022-08-03T14:13:05;35.90;38.80
20432;DHT22;10375;49.136;10.366;2022-08-03T14:15:33;35.60;39.50
20432;DHT22;10375;49.136;10.366;2022-08-03T14:18:05;35.80;39.70
20432;DHT22;10375;49.136;10.366;2022-08-03T14:20:40;36.20;39.40
20432;DHT22;10375;49.136;10.366;2022-08-03T14:23:16;36.60;39.30
20432;DHT22;10375;49.136;10.366;2022-08-03T14:25:43;36.80;38.10
20432;DHT22;10375;49.136;10.366;2022-08-03T14:28:19;36.60;38.50
20432;DHT22;10375;49.136;10.366;2022-08-03T14:30:49;36.50;38.80
20432;DHT22;10375;49.136;10.366;2022-08-03T14:33:16;36.60;38.30
20432;DHT22;10375;49.136;10.366;2022-08-03T14:35:43;36.80;38.30
20432;DHT22;10375;49.136;10.366;2022-08-03T14:38:10;36.80;38.50
20432;DHT22;10375;49.136;10.366;2022-08-03T14:40:37;36.70;38.40
20432;DHT22;10375;49.136;10.366;2022-08-03T14:43:04;36.40;37.60
20432;DHT22;10375;49.136;10.366;2022-08-03T14:45:31;36.30;38.50
20432;DHT22;10375;49.136;10.366;2022-08-03T14:48:00;36.10;38.60
20432;DHT22;10375;49.136;10.366;2022-08-03T14:50:47;36.00;38.40
20432;DHT22;10375;49.136;10.366;2022-08-03T14:53:18;35.50;38.60
20432;DHT22;10375;49.136;10.366;2022-08-03T14:55:47;35.10;38.80
20432;DHT22;10375;49.136;10.366;2022-08-03T14:58:18;34.90;39.20
20432;DHT22;10375;49.136;10.366;2022-08-03T15:00:48;34.80;39.50
20432;DHT22;10375;49.136;10.366;2022-08-03T15:03:15;34.80;39.60
20432;DHT22;10375;49.136;10.366;2022-08-03T15:05:43;35.00;39.90
20432;DHT22;10375;49.136;10.366;2022-08-03T15:08:10;35.20;40.00
20432;DHT22;10375;49.136;10.366;2022-08-03T15:10:37;35.40;38.80
20432;DHT22;10375;49.136;10.366;2022-08-03T15:13:10;35.40;38.30
20432;DHT22;10375;49.136;10.366;2022-08-03T15:15:38;34.90;38.60
20432;DHT22;10375;49.136;10.366;2022-08-03T15:18:05;34.70;39.40
20432;DHT22;10375;49.136;10.366;2022-08-03T15:20:32;34.90;40.00
20432;DHT22;10375;49.136;10.366;2022-08-03T15:23:10;35.10;39.30
20432;DHT22;10375;49.136;10.366;2022-08-03T15:25:37;35.40;40.10
20432;DHT22;10375;49.136;10.366;2022-08-03T15:28:24;35.50;40.00
20432;DHT22;10375;49.136;10.366;2022-08-03T15:30:51;35.70;39.60
20432;DHT22;10375;49.136;10.366;2022-08-03T15:33:19;35.60;38.80
20432;DHT22;10375;49.136;10.366;2022-08-03T15:35:46;35.40;38.00
20432;DHT22;10375;49.136;10.366;2022-08-03T15:38:14;34.90;39.30
20432;DHT22;10375;49.136;10.366;2022-08-03T15:40:41;35.00;39.40
20432;DHT22;10375;49.136;10.366;2022-08-03T15:43:08;34.90;39.10
20432;DHT22;10375;49.136;10.366;2022-08-03T15:45:35;34.80;39.70
20432;DHT22;10375;49.136;10.366;2022-08-03T15:48:05;34.50;39.50
20432;DHT22;10375;49.136;10.366;2022-08-03T15:50:33;34.50;40.50
20432;DHT22;10375;49.136;10.366;2022-08-03T15:53:00;34.60;40.00
20432;DHT22;10375;49.136;10.366;2022-08-03T15:55:27;34.50;39.90
20432;DHT22;10375;49.136;10.366;2022-08-03T15:57:54;34.20;39.60
20432;DHT22;10375;49.136;10.366;2022-08-03T16:00:42;34.20;39.70
20432;DHT22;10375;49.136;10.366;2022-08-03T16:03:09;34.00;40.30